Time;durP1;ratioP1;P1;durP2;ratioP2;P2;SDS_P1;SDS_P2;PMS_P1;PMS_P2;Temp;Humidity;BMP_temperature;BMP_pressure;BME280_temperature;BME280_humidity;BME280_pressure;Samples;Min_cycle;Max_cycle;Signal;HPM_P1;HPM_P2
2023/07/19 00:02:05;;;;;;;8.98;2.70;;;17.10;99.90;;;;;;5003378;28;277560;-70
2023/07/19 00:04:31;;;;;;;9.68;2.88;;;17.10;99.90;;;;;;5020759;28;20796;-71
2023/07/19 00:06:57;;;;;;;9.93;3.00;;;17.10;99.90;;;;;;5000892;28;267511;-70
2023/07/19 00:09:23;;;;;;;9.48;2.95;;;17.10;99.90;;;;;;5022597;28;20130;-69
2023/07/19 00:11:50;;;;;;;10.30;2.88;;;17.10;99.90;;;;;;4997434;28;266073;-70
2023/07/19 00:14:16;;;;;;;9.00;3.10;;;17.10;99.90;;;;;;5011145;28;20042;-69
2023/07/19 00:16:42;;;;;;;8.43;2.67;;;17.10;99.90;;;;;;5000875;28;254734;-69
2023/07/19 00:19:08;;;;;;;8.82;2.90;;;17.10;99.90;;;;;;5022794;28;20045;-70
2023/07/19 00:21:34;;;;;;;8.18;2.63;;;17.10;99.90;;;;;;5000110;28;263116;-69
2023/07/19 00:24:00;;;;;;;7.53;2.63;;;17.10;99.90;;;;;;5023742;28;20052;-70
2023/07/19 00:26:27;;;;;;;10.60;3.28;;;17.10;99.90;;;;;;4997591;28;258459;-70
2023/07/19 00:28:53;;;;;;;11.90;3.17;;;17.10;99.90;;;;;;5028545;28;20046;-69
2023/07/19 00:31:19;;;;;;;8.65;2.72;;;17.00;99.90;;;;;;4998357;28;253902;-69
2023/07/19 00:33:45;;;;;;;9.00;3.08;;;17.00;99.90;;;;;;5031389;28;20059;-70
2023/07/19 00:36:11;;;;;;;10.23;3.10;;;17.00;99.90;;;;;;4995541;28;268987;-69
2023/07/19 00:38:38;;;;;;;9.40;3.35;;;17.00;99.90;;;;;;5025074;28;20061;-70
2023/07/19 00:41:04;;;;;;;9.63;3.00;;;17.00;99.90;;;;;;4994728;28;256731;-68
2023/07/19 00:43:30;;;;;;;8.05;3.00;;;16.90;99.90;;;;;;4993198;28;20053;-68
2023/07/19 00:45:56;;;;;;;10.65;3.38;;;16.90;99.90;;;;;;5009771;28;20404;-69
2023/07/19 00:48:23;;;;;;;8.38;3.10;;;16.90;99.90;;;;;;5011035;28;258756;-69
2023/07/19 00:50:50;;;;;;;10.80;3.20;;;16.90;99.90;;;;;;5014249;28;20062;-68
2023/07/19 00:53:18;;;;;;;10.23;3.35;;;16.90;99.90;;;;;;5001576;28;22455;-69
2023/07/19 00:55:48;;;;;;;9.13;3.60;;;16.90;99.90;;;;;;5012528;28;20427;-68
2023/07/19 00:58:15;;;;;;;11.05;3.67;;;16.90;99.90;;;;;;4980865;28;267150;-69
2023/07/19 01:00:41;;;;;;;11.60;3.28;;;16.80;99.90;;;;;;5012164;28;20060;-69
2023/07/19 01:03:08;;;;;;;11.23;3.15;;;16.80;99.90;;;;;;4994216;28;277090;-69
2023/07/19 01:05:34;;;;;;;9.90;3.30;;;16.70;99.90;;;;;;5012267;28;20065;-69
2023/07/19 01:08:00;;;;;;;9.23;3.30;;;16.80;99.90;;;;;;5002077;28;260280;-70
2023/07/19 01:10:26;;;;;;;10.70;3.30;;;16.70;99.90;;;;;;5010195;28;20050;-69
2023/07/19 01:13:06;;;;;;;8.15;3.20;;;16.70;99.90;;;;;;4991394;28;255515;-70
2023/07/19 01:15:33;;;;;;;8.45;3.28;;;16.80;99.90;;;;;;5012013;28;20058;-70
2023/07/19 01:17:59;;;;;;;11.20;3.53;;;16.70;99.90;;;;;;5009707;28;271062;-69
2023/07/19 01:20:25;;;;;;;9.13;3.25;;;16.70;99.90;;;;;;5011877;28;20053;-70
2023/07/19 01:22:52;;;;;;;10.45;3.20;;;16.70;99.90;;;;;;4992515;28;255748;-70
2023/07/19 01:25:18;;;;;;;10.15;2.97;;;16.70;99.90;;;;;;5009619;28;20053;-70
2023/07/19 01:27:44;;;;;;;8.23;3.58;;;16.70;99.90;;;;;;5013680;28;276578;-70
2023/07/19 01:30:11;;;;;;;10.80;3.08;;;16.70;99.90;;;;;;5028533;28;20483;-70
2023/07/19 01:32:37;;;;;;;10.75;3.50;;;16.70;99.90;;;;;;5017977;28;265125;-70
2023/07/19 01:35:03;;;;;;;9.18;3.42;;;16.70;99.90;;;;;;5037539;28;20521;-70
2023/07/19 01:37:29;;;;;;;11.30;3.38;;;16.70;99.90;;;;;;5024397;28;274177;-69
2023/07/19 01:39:55;;;;;;;9.90;3.53;;;16.70;99.90;;;;;;5032082;28;20050;-70
2023/07/19 01:42:22;;;;;;;9.60;3.30;;;16.70;99.90;;;;;;5013690;28;204041;-69
2023/07/19 01:44:48;;;;;;;9.35;3.45;;;16.70;99.90;;;;;;5037539;28;20506;-70
2023/07/19 01:47:14;;;;;;;9.77;3.40;;;16.70;99.90;;;;;;5019463;28;272880;-69
2023/07/19 01:49:40;;;;;;;11.48;3.78;;;16.70;99.90;;;;;;5035576;28;20537;-70
2023/07/19 01:52:07;;;;;;;10.73;3.60;;;16.60;99.90;;;;;;5019200;28;273446;-70
2023/07/19 01:54:33;;;;;;;11.80;3.72;;;16.70;99.90;;;;;;5033983;28;20056;-70
2023/07/19 01:56:59;;;;;;;11.63;4.18;;;16.60;99.90;;;;;;4999128;28;249180;-70
2023/07/19 01:59:25;;;;;;;9.82;4.05;;;16.60;99.90;;;;;;5039327;28;20060;-69
2023/07/19 02:01:53;;;;;;;10.23;3.80;;;16.60;99.90;;;;;;5013794;28;261429;-69
2023/07/19 02:04:19;;;;;;;12.25;4.70;;;16.60;99.90;;;;;;5035872;28;20060;-70
2023/07/19 02:06:46;;;;;;;9.75;4.55;;;16.60;99.90;;;;;;5008531;28;258362;-69
2023/07/19 02:09:12;;;;;;;9.68;3.95;;;16.60;99.90;;;;;;5019820;28;20049;-70
2023/07/19 02:11:38;;;;;;;12.50;4.72;;;16.60;99.90;;;;;;4992706;28;264385;-70
2023/07/19 02:14:04;;;;;;;12.15;4.90;;;16.60;99.90;;;;;;5023343;28;20042;-69
2023/07/19 02:16:30;;;;;;;11.07;4.22;;;16.60;99.90;;;;;;5013885;28;139025;-70
2023/07/19 02:18:56;;;;;;;11.93;5.05;;;16.50;99.90;;;;;;5019878;28;20046;-69
2023/07/19 02:21:22;;;;;;;11.77;4.55;;;16.50;99.90;;;;;;4993507;28;271729;-69
2023/07/19 02:23:48;;;;;;;11.30;5.25;;;16.50;99.90;;;;;;5016957;28;20519;-70
2023/07/19 02:26:15;;;;;;;9.82;4.85;;;16.50;99.90;;;;;;4991228;28;275368;-69
2023/07/19 02:28:41;;;;;;;12.43;5.10;;;16.50;99.90;;;;;;5020915;28;20053;-69
2023/07/19 02:31:08;;;;;;;10.38;4.55;;;16.50;99.90;;;;;;4988799;28;259090;-69
2023/07/19 02:33:34;;;;;;;10.18;5.00;;;16.50;99.90;;;;;;5023830;28;20053;-69
2023/07/19 02:36:00;;;;;;;10.90;5.13;;;16.50;99.90;;;;;;4991696;28;20083;-69
2023/07/19 02:38:26;;;;;;;14.68;5.13;;;16.50;99.90;;;;;;5014333;28;20561;-69
2023/07/19 02:40:59;;;;;;;12.10;4.97;;;16.40;99.90;;;;;;5009206;28;20046;-70
2023/07/19 02:43:26;;;;;;;9.77;5.00;;;16.40;99.90;;;;;;5024779;28;282791;-71
2023/07/19 02:45:53;;;;;;;10.15;4.90;;;16.40;99.90;;;;;;5033769;28;20175;-70
2023/07/19 02:48:21;;;;;;;10.57;5.22;;;16.30;99.90;;;;;;5007971;28;274979;-69
2023/07/19 02:50:48;;;;;;;12.38;4.97;;;16.30;99.90;;;;;;5004756;28;20058;-69
2023/07/19 02:53:15;;;;;;;11.05;5.22;;;16.30;99.90;;;;;;5006510;28;264221;-69
2023/07/19 02:55:45;;;;;;;13.13;5.80;;;16.30;99.90;;;;;;5011759;28;20049;-69
2023/07/19 02:58:12;;;;;;;11.90;5.20;;;16.30;99.90;;;;;;4987369;28;274218;-70
2023/07/19 03:00:42;;;;;;;12.85;5.78;;;16.20;99.90;;;;;;5006615;28;20061;-69
2023/07/19 03:03:12;;;;;;;12.40;5.90;;;16.20;99.90;;;;;;5018287;28;270354;-69
2023/07/19 03:05:42;;;;;;;10.75;5.28;;;16.20;99.90;;;;;;5029328;28;20296;-68
2023/07/19 03:08:09;;;;;;;11.70;5.13;;;16.20;99.90;;;;;;5011281;28;225746;-70
2023/07/19 03:10:36;;;;;;;15.52;5.70;;;16.20;99.90;;;;;;5026800;28;20060;-69
2023/07/19 03:13:02;;;;;;;12.43;6.03;;;16.20;99.90;;;;;;5025971;28;274902;-70
2023/07/19 03:15:32;;;;;;;15.45;5.55;;;16.20;99.90;;;;;;5028507;28;20508;-70
2023/07/19 03:18:02;;;;;;;14.68;5.72;;;16.20;99.90;;;;;;4998664;28;250396;-69
2023/07/19 03:20:29;;;;;;;12.73;5.70;;;16.20;99.90;;;;;;5028018;28;20079;-70
2023/07/19 03:22:57;;;;;;;15.52;6.22;;;16.20;99.90;;;;;;5026155;28;265786;-71
2023/07/19 03:25:23;;;;;;;10.85;5.28;;;16.10;99.90;;;;;;5030283;28;20462;-70
2023/07/19 03:27:50;;;;;;;12.50;5.60;;;16.10;99.90;;;;;;5009131;28;268112;-70
2023/07/19 03:30:17;;;;;;;16.30;6.15;;;16.10;99.90;;;;;;5032719;28;21674;-70
2023/07/19 03:32:43;;;;;;;13.00;5.88;;;16.10;99.90;;;;;;5026551;28;262437;-71
2023/07/19 03:35:09;;;;;;;15.38;5.70;;;16.10;99.90;;;;;;5034203;28;20053;-70
2023/07/19 03:37:36;;;;;;;12.15;5.82;;;16.10;99.90;;;;;;5019845;28;267977;-71
2023/07/19 03:40:04;;;;;;;14.43;6.25;;;16.10;99.90;;;;;;5035295;28;20056;-70
2023/07/19 03:42:31;;;;;;;13.77;6.07;;;16.10;99.90;;;;;;5022739;28;255092;-69
2023/07/19 03:44:57;;;;;;;17.73;6.20;;;16.20;99.90;;;;;;5037788;28;20411;-70
2023/07/19 03:47:24;;;;;;;14.68;6.43;;;16.20;99.90;;;;;;5025839;28;263318;-69
2023/07/19 03:49:50;;;;;;;15.27;6.63;;;16.10;99.90;;;;;;5032658;28;20080;-69
2023/07/19 03:52:16;;;;;;;13.57;6.32;;;16.20;99.90;;;;;;5024528;28;256540;-70
2023/07/19 03:54:43;;;;;;;12.25;5.93;;;16.10;99.90;;;;;;5038300;28;20053;-70
2023/07/19 03:57:09;;;;;;;12.63;6.55;;;16.10;99.90;;;;;;5008487;28;274260;-72
2023/07/19 03:59:35;;;;;;;15.25;7.57;;;16.20;99.90;;;;;;5040533;28;20069;-70
2023/07/19 04:02:01;;;;;;;13.38;6.30;;;16.20;99.90;;;;;;5020107;28;271329;-69
2023/07/19 04:04:27;;;;;;;13.95;6.13;;;16.20;99.90;;;;;;5040835;28;20061;-70
2023/07/19 04:06:53;;;;;;;15.48;6.75;;;16.20;99.90;;;;;;5018230;28;259216;-70
2023/07/19 04:09:19;;;;;;;13.52;6.85;;;16.20;99.90;;;;;;5037685;28;20064;-70
2023/07/19 04:11:45;;;;;;;14.80;6.68;;;16.20;99.90;;;;;;5009394;28;272336;-70
2023/07/19 04:14:11;;;;;;;14.77;6.65;;;16.10;99.90;;;;;;5027533;28;20053;-69
2023/07/19 04:16:37;;;;;;;13.07;6.93;;;16.10;99.90;;;;;;5013777;28;276270;-68
2023/07/19 04:19:03;;;;;;;12.73;6.43;;;16.20;99.90;;;;;;5029381;28;20057;-70
2023/07/19 04:21:30;;;;;;;13.80;5.93;;;16.10;99.90;;;;;;5015251;28;262461;-70
2023/07/19 04:23:56;;;;;;;13.13;6.30;;;16.20;99.90;;;;;;5039077;28;20049;-71
2023/07/19 04:26:22;;;;;;;13.02;6.45;;;16.20;99.90;;;;;;5009910;28;251686;-70
2023/07/19 04:28:48;;;;;;;13.98;6.95;;;16.30;99.90;;;;;;5030533;28;20057;-70
2023/07/19 04:31:14;;;;;;;15.55;7.07;;;16.30;99.90;;;;;;5015451;28;251826;-71
2023/07/19 04:33:41;;;;;;;16.40;6.60;;;16.30;99.90;;;;;;5034045;28;20060;-71
2023/07/19 04:36:14;;;;;;;13.00;6.80;;;16.30;99.90;;;;;;5016555;28;251627;-69
2023/07/19 04:38:41;;;;;;;15.30;6.50;;;16.30;99.90;;;;;;5048013;28;20060;-70
2023/07/19 04:41:08;;;;;;;16.07;7.30;;;16.40;99.90;;;;;;5016552;28;257224;-69
2023/07/19 04:43:35;;;;;;;15.38;6.90;;;16.40;99.90;;;;;;5040619;28;20060;-70
2023/07/19 04:46:01;;;;;;;13.13;6.60;;;16.40;99.90;;;;;;5018297;28;257340;-68
2023/07/19 04:48:27;;;;;;;14.27;6.78;;;16.40;99.90;;;;;;5011123;28;20060;-70
2023/07/19 04:50:57;;;;;;;14.15;6.80;;;16.50;99.90;;;;;;5028002;28;20057;-70
2023/07/19 04:53:25;;;;;;;11.83;6.83;;;16.50;99.90;;;;;;5025656;28;255851;-70
2023/07/19 04:55:54;;;;;;;16.98;7.10;;;16.50;99.90;;;;;;5024871;28;20291;-70
2023/07/19 04:58:20;;;;;;;15.30;6.53;;;16.50;99.90;;;;;;5000990;28;259435;-70
2023/07/19 05:00:46;;;;;;;19.85;7.88;;;16.60;99.90;;;;;;5031712;28;20057;-71
2023/07/19 05:03:12;;;;;;;17.92;6.93;;;16.50;99.90;;;;;;5022350;28;268876;-70
2023/07/19 05:05:39;;;;;;;16.80;6.97;;;16.60;99.90;;;;;;5030871;28;20054;-70
2023/07/19 05:08:06;;;;;;;16.10;7.38;;;16.60;99.90;;;;;;5013339;28;229381;-70
2023/07/19 05:10:35;;;;;;;16.33;6.82;;;16.60;99.90;;;;;;5029127;28;20045;-70
2023/07/19 05:13:02;;;;;;;17.52;7.60;;;16.70;99.90;;;;;;4992864;28;257693;-69
2023/07/19 05:15:28;;;;;;;19.85;5.97;;;16.70;99.90;;;;;;5010174;28;20055;-71
2023/07/19 05:17:55;;;;;;;15.25;6.63;;;16.70;99.90;;;;;;5008435;28;253378;-70
2023/07/19 05:20:21;;;;;;;18.48;7.07;;;16.80;99.90;;;;;;5007744;28;20487;-70
2023/07/19 05:22:47;;;;;;;23.02;7.30;;;16.80;99.90;;;;;;5001246;28;240843;-70
2023/07/19 05:25:13;;;;;;;33.60;7.97;;;16.80;99.90;;;;;;5009747;28;20413;-70
2023/07/19 05:27:39;;;;;;;19.63;7.05;;;16.80;99.90;;;;;;5006399;28;277778;-71
2023/07/19 05:30:06;;;;;;;18.23;6.45;;;16.80;99.90;;;;;;5009028;28;20092;-70
2023/07/19 05:32:32;;;;;;;13.18;6.05;;;16.90;99.90;;;;;;4991518;28;272101;-67
2023/07/19 05:34:58;;;;;;;12.60;6.10;;;16.90;99.90;;;;;;5011428;28;20050;-68
2023/07/19 05:37:24;;;;;;;12.13;6.22;;;17.00;99.90;;;;;;4997394;28;188473;-68
2023/07/19 05:39:50;;;;;;;14.43;6.07;;;17.00;99.90;;;;;;4994863;28;20060;-68
2023/07/19 05:42:17;;;;;;;13.68;5.68;;;17.00;99.90;;;;;;5001807;28;94949;-68
2023/07/19 05:44:43;;;;;;;15.25;6.13;;;17.00;99.90;;;;;;5001058;28;20050;-68
2023/07/19 05:47:09;;;;;;;16.88;5.80;;;17.10;99.90;;;;;;4999442;28;227132;-68
2023/07/19 05:49:35;;;;;;;13.32;6.40;;;17.00;99.90;;;;;;5030975;28;20057;-68
2023/07/19 05:52:01;;;;;;;15.75;6.10;;;17.00;99.90;;;;;;5005597;28;168473;-69
2023/07/19 05:54:28;;;;;;;12.80;5.95;;;17.00;99.90;;;;;;5013860;28;20057;-68
2023/07/19 05:56:55;;;;;;;13.88;5.95;;;17.10;99.90;;;;;;4975727;28;268390;-68
2023/07/19 05:59:21;;;;;;;13.07;6.50;;;17.00;99.90;;;;;;5014997;28;20538;-69
2023/07/19 06:01:47;;;;;;;14.02;5.93;;;17.00;99.90;;;;;;4995618;28;276292;-69
2023/07/19 06:04:14;;;;;;;11.15;5.55;;;17.10;99.90;;;;;;4989546;28;20073;-69
2023/07/19 06:06:40;;;;;;;13.52;5.80;;;17.10;99.90;;;;;;4998742;28;258315;-69
2023/07/19 06:09:08;;;;;;;11.13;5.78;;;17.10;99.90;;;;;;5015678;28;20764;-69
2023/07/19 06:11:35;;;;;;;12.40;6.07;;;17.10;99.90;;;;;;4997363;28;267490;-68
2023/07/19 06:14:02;;;;;;;13.25;6.18;;;17.20;99.90;;;;;;5008479;28;20057;-68
2023/07/19 06:16:28;;;;;;;12.68;5.90;;;17.20;99.90;;;;;;4995730;28;266404;-68
2023/07/19 06:18:54;;;;;;;15.48;6.25;;;17.20;99.90;;;;;;5008003;28;20400;-69
2023/07/19 06:21:22;;;;;;;13.05;6.20;;;17.20;99.90;;;;;;4993421;28;275922;-69
2023/07/19 06:23:48;;;;;;;14.38;5.97;;;17.30;99.90;;;;;;5022103;28;20514;-69
2023/07/19 06:26:14;;;;;;;10.45;5.60;;;17.30;99.90;;;;;;4994495;28;266366;-69
2023/07/19 06:28:40;;;;;;;13.88;5.47;;;17.30;99.90;;;;;;5020022;28;20360;-69
2023/07/19 06:31:06;;;;;;;12.63;5.53;;;17.30;99.90;;;;;;4990399;28;278175;-69
2023/07/19 06:33:32;;;;;;;12.98;5.50;;;17.40;99.90;;;;;;5023789;28;20050;-69
2023/07/19 06:35:58;;;;;;;11.13;5.13;;;17.40;99.90;;;;;;5006294;28;20061;-69
2023/07/19 06:38:25;;;;;;;11.32;5.20;;;17.40;99.90;;;;;;5009515;28;117645;-68
2023/07/19 06:40:51;;;;;;;13.57;5.13;;;17.30;99.90;;;;;;5029731;28;20044;-67
2023/07/19 06:43:17;;;;;;;10.52;4.03;;;17.20;99.90;;;;;;4990438;28;182545;-68
2023/07/19 06:45:45;;;;;;;13.82;3.90;;;17.30;99.90;;;;;;5006123;28;20058;-68
2023/07/19 06:48:12;;;;;;;10.23;3.88;;;17.30;99.90;;;;;;4991226;28;176632;-68
2023/07/19 06:50:38;;;;;;;11.52;3.90;;;17.30;99.90;;;;;;5007169;28;20061;-67
2023/07/19 06:53:04;;;;;;;10.40;3.80;;;17.30;99.90;;;;;;4997179;28;176746;-68
2023/07/19 06:55:30;;;;;;;10.50;3.90;;;17.40;99.90;;;;;;5013831;28;20217;-69
2023/07/19 06:57:56;;;;;;;11.70;3.80;;;17.30;99.90;;;;;;4973460;28;177458;-69
2023/07/19 07:00:22;;;;;;;9.85;3.28;;;17.40;99.90;;;;;;5024232;28;20270;-69
2023/07/19 07:02:48;;;;;;;10.38;3.38;;;17.40;99.90;;;;;;4985286;28;1075372;-69
2023/07/19 07:05:15;;;;;;;9.10;3.22;;;17.50;99.90;;;;;;5019133;28;20054;-68
2023/07/19 07:07:41;;;;;;;9.27;3.38;;;17.50;99.90;;;;;;5012020;28;257465;-68
2023/07/19 07:10:09;;;;;;;12.40;3.50;;;17.60;99.90;;;;;;5019994;28;20061;-69
2023/07/19 07:12:36;;;;;;;9.95;3.20;;;17.60;99.90;;;;;;5010597;28;263703;-68
2023/07/19 07:15:03;;;;;;;10.88;3.15;;;17.60;99.90;;;;;;5020607;28;20053;-69
2023/07/19 07:17:29;;;;;;;10.45;3.17;;;17.60;99.90;;;;;;5010452;28;269880;-69
2023/07/19 07:19:55;;;;;;;9.93;3.22;;;17.70;99.90;;;;;;5021375;28;20565;-68
2023/07/19 07:22:22;;;;;;;10.63;3.22;;;17.80;99.90;;;;;;5012361;28;262013;-69
2023/07/19 07:24:49;;;;;;;9.23;3.40;;;17.90;99.90;;;;;;5038704;28;20521;-69
2023/07/19 07:27:15;;;;;;;8.98;3.58;;;17.90;99.90;;;;;;5008741;28;185111;-69
2023/07/19 07:29:42;;;;;;;10.45;3.63;;;18.00;99.90;;;;;;5017554;28;20050;-69
2023/07/19 07:32:10;;;;;;;11.02;3.60;;;18.00;99.90;;;;;;5003032;28;265747;-69
2023/07/19 07:34:37;;;;;;;12.82;3.90;;;18.10;99.90;;;;;;5012385;28;20050;-69
2023/07/19 07:37:04;;;;;;;12.80;3.80;;;18.10;99.90;;;;;;4997679;28;269885;-69
2023/07/19 07:39:31;;;;;;;12.50;3.50;;;18.20;99.90;;;;;;5007291;28;20069;-70
2023/07/19 07:41:57;;;;;;;11.35;3.50;;;18.20;99.90;;;;;;5000705;28;251997;-68
2023/07/19 07:44:23;;;;;;;10.70;3.50;;;18.30;99.90;;;;;;5024717;28;20049;-68
2023/07/19 07:46:49;;;;;;;11.15;3.53;;;18.40;99.90;;;;;;5000450;28;145839;-68
2023/07/19 07:49:15;;;;;;;9.82;3.00;;;18.40;99.90;;;;;;5016219;28;20082;-68
2023/07/19 07:51:42;;;;;;;9.65;3.47;;;18.40;99.90;;;;;;5006103;28;268567;-68
2023/07/19 07:54:08;;;;;;;15.70;3.60;;;18.50;99.90;;;;;;5026272;28;20064;-68
2023/07/19 07:56:34;;;;;;;11.15;3.08;;;18.50;99.90;;;;;;4972257;28;225094;-69
2023/07/19 07:59:00;;;;;;;9.60;3.00;;;18.50;99.90;;;;;;5029031;28;20442;-69
2023/07/19 08:01:26;;;;;;;7.95;2.90;;;18.40;99.90;;;;;;5005869;28;196392;-69
2023/07/19 08:03:53;;;;;;;10.18;2.97;;;18.50;99.90;;;;;;5048999;28;20064;-69
2023/07/19 08:06:19;;;;;;;13.02;2.70;;;18.50;99.90;;;;;;5020256;28;250205;-69
2023/07/19 08:08:45;;;;;;;10.68;2.72;;;18.50;99.90;;;;;;5035177;28;20065;-68
2023/07/19 08:11:11;;;;;;;11.20;2.60;;;18.60;99.90;;;;;;5022256;28;249922;-68
2023/07/19 08:13:38;;;;;;;9.90;2.53;;;18.60;99.90;;;;;;5050054;28;20507;-68
2023/07/19 08:16:06;;;;;;;9.15;2.40;;;18.60;99.90;;;;;;5016344;28;279832;-68
2023/07/19 08:18:34;;;;;;;8.90;2.20;;;18.60;99.90;;;;;;5021824;28;20061;-68
2023/07/19 08:21:00;;;;;;;8.30;2.20;;;18.70;99.90;;;;;;5038056;28;20057;-69
2023/07/19 08:23:26;;;;;;;8.23;1.80;;;18.80;99.90;;;;;;5024760;28;20037;-69
2023/07/19 08:25:58;;;;;;;10.02;1.98;;;18.80;99.90;;;;;;5039325;28;20056;-69
2023/07/19 08:28:25;;;;;;;9.40;2.22;;;18.90;99.90;;;;;;5014248;28;208101;-69
2023/07/19 08:30:52;;;;;;;9.30;2.17;;;18.80;99.90;;;;;;5013223;28;20073;-69
2023/07/19 08:33:20;;;;;;;10.15;2.10;;;18.80;99.90;;;;;;5031836;28;262161;-69
2023/07/19 08:35:46;;;;;;;12.82;2.67;;;19.00;99.90;;;;;;5035704;28;20050;-69
2023/07/19 08:38:13;;;;;;;7.00;1.58;;;19.30;99.90;;;;;;5030986;28;271864;-69
2023/07/19 08:40:39;;;;;;;13.10;1.92;;;19.50;99.90;;;;;;5031045;28;20056;-69
2023/07/19 08:43:07;;;;;;;7.50;1.58;;;19.30;99.90;;;;;;5036921;28;270115;-70
2023/07/19 08:45:36;;;;;;;6.55;1.60;;;19.20;99.90;;;;;;5035200;28;20046;-69
2023/07/19 08:48:04;;;;;;;8.48;1.83;;;19.10;99.90;;;;;;5023001;28;126641;-69
2023/07/19 08:50:31;;;;;;;8.43;1.80;;;19.20;99.90;;;;;;5034441;28;20605;-69
2023/07/19 08:53:02;;;;;;;9.45;1.77;;;19.20;99.90;;;;;;5012204;28;261317;-69
2023/07/19 08:55:31;;;;;;;8.40;1.70;;;19.20;99.90;;;;;;5023748;28;20605;-69
2023/07/19 08:57:57;;;;;;;8.07;1.90;;;19.70;99.90;;;;;;5006155;28;182386;-69
2023/07/19 09:00:28;;;;;;;8.55;1.90;;;20.00;99.90;;;;;;5026579;28;20068;-69
2023/07/19 09:02:55;;;;;;;6.97;1.70;;;20.20;99.90;;;;;;5011898;28;253640;-69
2023/07/19 09:05:21;;;;;;;9.18;1.95;;;20.70;99.90;;;;;;5026035;28;20049;-69
2023/07/19 09:07:48;;;;;;;8.55;1.90;;;20.60;99.90;;;;;;5021133;28;29446;-69
2023/07/19 09:10:17;;;;;;;9.75;1.90;;;20.60;99.90;;;;;;5028205;28;20120;-69
2023/07/19 09:12:46;;;;;;;8.50;1.80;;;20.40;99.90;;;;;;5022133;28;106504;-69
2023/07/19 09:15:13;;;;;;;8.40;1.70;;;20.30;99.90;;;;;;5033319;28;20060;-69
2023/07/19 09:17:45;;;;;;;8.27;1.95;;;20.20;99.90;;;;;;5026878;28;260356;-69
2023/07/19 09:20:12;;;;;;;12.52;2.50;;;20.20;99.90;;;;;;5031005;28;20049;-69
2023/07/19 09:22:40;;;;;;;9.23;2.20;;;20.10;99.90;;;;;;5018436;28;129482;-69
2023/07/19 09:25:09;;;;;;;8.48;2.40;;;20.20;99.90;;;;;;5035554;28;20053;-68
2023/07/19 09:27:35;;;;;;;6.90;1.90;;;20.60;99.90;;;;;;5016372;28;83147;-69
2023/07/19 09:30:03;;;;;;;6.85;1.83;;;20.70;99.90;;;;;;5012717;28;20053;-70
2023/07/19 09:32:29;;;;;;;11.48;2.15;;;21.10;99.90;;;;;;5001965;28;217168;-69
2023/07/19 09:34:59;;;;;;;8.63;2.38;;;20.90;99.90;;;;;;5026158;28;20060;-69
2023/07/19 09:37:25;;;;;;;8.02;1.90;;;21.10;99.90;;;;;;5021571;28;260570;-70
2023/07/19 09:39:52;;;;;;;9.70;1.80;;;21.80;99.90;;;;;;5024658;28;20060;-70
2023/07/19 09:42:19;;;;;;;8.43;1.85;;;22.00;99.90;;;;;;5018702;28;270121;-70
2023/07/19 09:44:46;;;;;;;9.27;2.10;;;22.20;99.60;;;;;;5030507;28;20053;-69
2023/07/19 09:47:14;;;;;;;9.48;2.17;;;22.00;99.90;;;;;;5012623;28;262749;-69
2023/07/19 09:49:43;;;;;;;9.65;2.50;;;22.00;99.90;;;;;;5037267;28;20060;-70
2023/07/19 09:52:16;;;;;;;12.18;2.10;;;22.10;99.90;;;;;;5014607;28;265171;-70
2023/07/19 09:54:43;;;;;;;9.70;2.40;;;22.30;99.80;;;;;;5032473;28;20053;-70
2023/07/19 09:57:10;;;;;;;9.27;2.35;;;22.70;99.50;;;;;;5001061;28;258446;-70
2023/07/19 09:59:43;;;;;;;7.60;1.75;;;22.60;99.50;;;;;;5031405;28;20054;-69
2023/07/19 10:02:11;;;;;;;8.60;2.00;;;22.70;99.40;;;;;;5018406;28;276983;-70
2023/07/19 10:04:39;;;;;;;10.00;2.30;;;22.80;99.40;;;;;;5022723;28;20423;-69
2023/07/19 10:07:12;;;;;;;7.10;1.73;;;22.40;99.40;;;;;;5012609;28;129932;-70
2023/07/19 10:09:40;;;;;;;7.22;1.80;;;21.90;99.80;;;;;;5028081;28;20064;-69
2023/07/19 10:12:15;;;;;;;9.10;1.90;;;21.50;99.70;;;;;;5019998;28;263281;-69
2023/07/19 10:14:51;;;;;;;10.38;1.80;;;21.20;99.90;;;;;;5018245;28;20417;-68
2023/07/19 10:17:17;;;;;;;7.30;1.60;;;21.00;99.90;;;;;;5014679;28;269649;-69
2023/07/19 10:20:08;;;;;;;6.18;1.33;;;20.60;99.90;;;;;;5033237;28;20057;-70
2023/07/19 10:22:55;;;;;;;5.40;1.30;;;20.30;99.90;;;;;;5003941;28;263081;-69
2023/07/19 10:25:29;;;;;;;6.90;1.42;;;20.20;99.90;;;;;;5024401;28;20068;-70
2023/07/19 10:27:57;;;;;;;6.10;1.58;;;20.00;99.90;;;;;;5016083;28;22589;-70
2023/07/19 10:30:45;;;;;;;8.68;1.65;;;20.00;99.90;;;;;;5023874;28;20065;-69
2023/07/19 10:33:12;;;;;;;8.07;1.55;;;20.20;99.90;;;;;;5024534;28;277833;-69
2023/07/19 10:35:40;;;;;;;6.63;1.50;;;20.30;99.90;;;;;;5028266;28;20053;-69
2023/07/19 10:38:16;;;;;;;7.13;1.67;;;20.50;99.90;;;;;;5021427;28;270293;-68
2023/07/19 10:40:45;;;;;;;7.45;1.55;;;20.80;99.90;;;;;;5028256;28;20066;-69
2023/07/19 10:43:12;;;;;;;6.88;1.30;;;21.00;99.90;;;;;;5025318;28;273923;-69
2023/07/19 10:45:39;;;;;;;6.78;1.40;;;21.20;99.90;;;;;;5029046;28;20049;-69
2023/07/19 10:48:05;;;;;;;7.30;1.20;;;21.40;99.90;;;;;;5010382;28;218916;-69
2023/07/19 10:50:31;;;;;;;8.05;1.45;;;21.20;99.90;;;;;;5029159;28;20553;-68
2023/07/19 10:52:57;;;;;;;7.65;1.52;;;20.90;99.90;;;;;;5017218;28;259729;-69
2023/07/19 10:55:26;;;;;;;7.07;1.52;;;20.90;99.90;;;;;;5026282;28;20057;-69
2023/07/19 10:57:52;;;;;;;8.32;1.75;;;20.90;99.90;;;;;;5005922;28;259185;-69
2023/07/19 11:00:19;;;;;;;7.55;1.60;;;21.00;99.90;;;;;;5028731;28;20065;-68
2023/07/19 11:02:45;;;;;;;6.78;1.55;;;21.10;99.90;;;;;;5024515;28;256481;-69
2023/07/19 11:05:11;;;;;;;8.38;1.63;;;21.80;99.90;;;;;;5031625;28;20514;-69
2023/07/19 11:07:37;;;;;;;7.63;1.60;;;22.50;99.90;;;;;;5019907;28;259144;-69
2023/07/19 11:10:04;;;;;;;5.90;1.40;;;23.40;99.70;;;;;;5026260;28;20380;-69
2023/07/19 11:12:31;;;;;;;8.00;1.70;;;23.90;99.20;;;;;;5021021;28;255497;-68
2023/07/19 11:14:58;;;;;;;10.60;1.73;;;23.80;98.70;;;;;;5032171;28;20045;-68
2023/07/19 11:17:26;;;;;;;10.05;1.80;;;23.10;98.40;;;;;;5017521;28;61937;-68
2023/07/19 11:19:53;;;;;;;6.97;1.40;;;22.50;98.30;;;;;;5031168;28;20686;-69
2023/07/19 11:22:24;;;;;;;8.30;1.63;;;22.10;98.40;;;;;;5009082;28;276656;-69
2023/07/19 11:24:52;;;;;;;9.10;1.67;;;21.80;99.20;;;;;;5029931;28;20049;-68
2023/07/19 11:27:19;;;;;;;7.90;1.67;;;21.60;99.40;;;;;;5012749;28;271045;-69
2023/07/19 11:29:50;;;;;;;7.07;1.65;;;21.80;99.70;;;;;;5033290;28;20080;-69
2023/07/19 11:32:18;;;;;;;8.63;1.67;;;22.10;99.70;;;;;;5021345;28;255186;-69
2023/07/19 11:34:52;;;;;;;7.18;1.50;;;22.50;99.20;;;;;;5034832;28;20060;-70
2023/07/19 11:37:25;;;;;;;8.68;1.60;;;23.00;99.30;;;;;;5007394;28;258260;-71
2023/07/19 11:39:53;;;;;;;7.85;1.80;;;23.20;98.50;;;;;;5027800;28;20065;-71
2023/07/19 11:42:44;;;;;;;7.63;1.60;;;22.90;98.40;;;;;;5022320;28;260179;-70
2023/07/19 11:45:25;;;;;;;7.88;1.60;;;22.50;98.00;;;;;;5026798;28;20057;-70
2023/07/19 11:47:58;;;;;;;7.65;1.52;;;22.20;98.40;;;;;;5021803;28;274071;-70
2023/07/19 11:50:25;;;;;;;7.97;1.50;;;21.90;98.80;;;;;;5027884;28;20053;-70
2023/07/19 11:53:01;;;;;;;6.68;1.60;;;21.90;98.70;;;;;;5018817;28;271154;-70
2023/07/19 11:55:29;;;;;;;8.05;1.63;;;21.90;98.80;;;;;;5027142;28;20052;-70
2023/07/19 11:58:02;;;;;;;8.38;1.70;;;22.00;99.10;;;;;;5008795;28;255222;-70
2023/07/19 12:00:32;;;;;;;8.10;1.77;;;22.20;98.60;;;;;;5023729;28;21149;-70
2023/07/19 12:02:58;;;;;;;9.25;1.70;;;22.40;97.90;;;;;;5023421;28;270945;-70
2023/07/19 12:05:26;;;;;;;9.00;1.80;;;22.40;97.60;;;;;;5026606;28;20049;-69
2023/07/19 12:07:52;;;;;;;7.68;1.58;;;22.20;97.60;;;;;;5013428;28;65826;-69
2023/07/19 12:10:20;;;;;;;7.53;1.52;;;22.40;97.60;;;;;;5006220;28;20050;-69
2023/07/19 12:12:54;;;;;;;8.27;1.65;;;22.70;97.60;;;;;;5017486;28;270011;-69
2023/07/19 12:15:20;;;;;;;6.05;1.48;;;23.20;96.40;;;;;;5022685;28;20057;-69
2023/07/19 12:17:46;;;;;;;7.25;1.15;;;22.70;97.00;;;;;;5018707;28;270649;-69
2023/07/19 12:20:13;;;;;;;6.53;1.45;;;22.50;96.30;;;;;;5025089;28;20042;-69
2023/07/19 12:22:42;;;;;;;8.40;1.58;;;21.90;97.10;;;;;;5021206;28;248606;-69
2023/07/19 12:25:09;;;;;;;6.82;1.40;;;21.80;97.30;;;;;;5025911;28;20058;-69
2023/07/19 12:27:36;;;;;;;5.75;1.40;;;21.50;97.60;;;;;;5017508;28;254453;-69
2023/07/19 12:30:03;;;;;;;4.88;1.20;;;21.50;97.90;;;;;;5028235;28;20407;-70
2023/07/19 12:32:29;;;;;;;6.82;1.30;;;21.80;97.90;;;;;;5016215;28;262560;-70
2023/07/19 12:34:56;;;;;;;6.45;1.50;;;21.90;98.10;;;;;;5026047;28;20060;-70
2023/07/19 12:37:23;;;;;;;6.65;1.35;;;22.00;98.10;;;;;;5013581;28;268518;-70